Time;durP1;ratioP1;P1;durP2;ratioP2;P2;SDS_P1;SDS_P2;PMS_P1;PMS_P2;Temp;Humidity;BMP_temperature;BMP_pressure;BME280_temperature;BME280_humidity;BME280_pressure;Samples;Min_cycle;Max_cycle;Signal;HPM_P1;HPM_P2
2022/08/16 00:00:45;;;;;;;15.60;12.00;;;;;;;18.73;77.48;98003.34;87704;1284;25479;-71
2022/08/16 00:02:47;;;;;;;21.60;11.90;;;;;;;18.72;77.56;98002.55;87685;1281;25563;-72
2022/08/16 00:04:49;;;;;;;16.80;11.90;;;;;;;18.69;77.48;98005.10;87762;1280;99313;-71
2022/08/16 00:06:50;;;;;;;20.40;12.00;;;;;;;18.66;77.55;98006.50;87902;1281;22571;-72
2022/08/16 00:08:52;;;;;;;15.80;11.60;;;;;;;18.64;77.62;98007.77;87949;1281;23026;-72
2022/08/16 00:10:54;;;;;;;15.20;11.40;;;;;;;18.62;77.71;98003.52;87871;1281;99329;-72
2022/08/16 00:12:56;;;;;;;15.50;11.20;;;;;;;18.60;77.66;98006.03;87792;1281;26545;-72
2022/08/16 00:15:02;;;;;;;16.70;11.60;;;;;;;18.59;77.66;98009.70;87701;1281;22587;-72
2022/08/16 00:17:03;;;;;;;13.30;11.30;;;;;;;18.58;77.75;98004.81;87720;1281;100050;-71
2022/08/16 00:19:05;;;;;;;16.20;11.80;;;;;;;18.57;77.80;98004.16;87937;1278;22699;-72
2022/08/16 00:21:07;;;;;;;19.30;12.10;;;;;;;18.57;77.78;98004.41;87776;1281;25481;-72
2022/08/16 00:23:08;;;;;;;23.80;11.20;;;;;;;18.54;77.78;98003.17;88144;1271;99494;-71
2022/08/16 00:25:13;;;;;;;16.40;12.50;;;;;;;18.52;77.84;98004.41;88236;1274;23514;-72
2022/08/16 00:27:16;;;;;;;24.30;13.50;;;;;;;18.52;77.83;98005.37;88477;1274;22771;-72
2022/08/16 00:29:18;;;;;;;16.10;11.50;;;;;;;18.50;77.86;98004.01;88299;1271;99558;-72
2022/08/16 00:31:20;;;;;;;25.70;10.90;;;;;;;18.46;77.84;98002.05;88038;1278;26574;-71
2022/08/16 00:33:21;;;;;;;26.90;12.90;;;;;;;18.44;77.95;98002.02;88029;1275;22741;-71
2022/08/16 00:35:27;;;;;;;17.60;12.80;;;;;;;18.43;77.91;98000.17;88230;1274;99252;-69
2022/08/16 00:37:29;;;;;;;15.20;10.10;;;;;;;18.43;77.95;98000.70;88189;1274;24791;-72
2022/08/16 00:39:31;;;;;;;17.70;12.30;;;;;;;18.43;77.89;98002.16;88357;1274;22598;-71
2022/08/16 00:41:34;;;;;;;15.50;12.60;;;;;;;18.42;77.92;98002.98;88230;1277;100100;-71
2022/08/16 00:43:35;;;;;;;19.70;13.50;;;;;;;18.40;77.94;98005.84;88248;1274;22575;-71
2022/08/16 00:45:43;;;;;;;20.30;12.50;;;;;;;18.38;78.09;98005.07;88380;1274;25505;-72
2022/08/16 00:47:46;;;;;;;22.80;12.90;;;;;;;18.36;78.02;98007.08;88385;1271;99191;-72
2022/08/16 00:49:48;;;;;;;18.80;12.10;;;;;;;18.35;78.07;98002.80;88509;1271;23332;-73
2022/08/16 00:51:51;;;;;;;27.00;13.10;;;;;;;18.31;78.15;98006.52;88366;1274;22644;-71
2022/08/16 00:53:53;;;;;;;14.40;12.20;;;;;;;18.26;78.28;98008.95;88313;1273;26348;-72
2022/08/16 00:55:57;;;;;;;18.50;12.50;;;;;;;18.23;78.29;98014.92;88590;1274;22580;-70
2022/08/16 00:57:59;;;;;;;17.70;12.70;;;;;;;18.18;78.21;98015.52;88354;1275;99964;-72
2022/08/16 01:00:05;;;;;;;19.20;13.60;;;;;;;18.14;78.35;98012.54;88309;1274;24069;-72
2022/08/16 01:02:08;;;;;;;19.90;13.60;;;;;;;18.12;78.49;98013.13;88442;1274;22566;-72
2022/08/16 01:04:12;;;;;;;22.40;13.60;;;;;;;18.10;78.47;98013.16;87988;1274;100891;-71
2022/08/16 01:06:17;;;;;;;17.40;13.00;;;;;;;18.08;78.58;98016.17;88239;1274;24235;-71
2022/08/16 01:08:21;;;;;;;18.00;12.70;;;;;;;18.08;78.54;98015.64;88290;1274;22631;-71
2022/08/16 01:10:26;;;;;;;14.60;13.00;;;;;;;18.07;78.63;98017.30;88404;1275;98435;-72
2022/08/16 01:12:28;;;;;;;17.20;14.20;;;;;;;18.07;78.62;98016.46;88210;1274;24180;-71
2022/08/16 01:14:39;;;;;;;18.60;14.00;;;;;;;18.06;78.64;98011.69;88403;1271;22743;-71
2022/08/16 01:16:44;;;;;;;16.50;13.70;;;;;;;18.06;78.81;98014.89;88133;1275;99851;-71
2022/08/16 01:18:51;;;;;;;18.90;14.60;;;;;;;18.07;78.84;98019.11;88378;1274;22671;-71
2022/08/16 01:21:03;;;;;;;25.60;14.70;;;;;;;18.08;78.69;98019.64;88384;1271;22605;-71
2022/08/16 01:23:25;;;;;;;22.20;14.90;;;;;;;18.08;78.78;98020.17;88280;1271;100136;-72
2022/08/16 01:25:33;;;;;;;27.10;14.90;;;;;;;18.09;78.90;98016.75;88482;1271;22780;-71
2022/08/16 01:27:56;;;;;;;25.60;15.70;;;;;;;18.09;78.85;98015.50;88309;1271;24377;-71
2022/08/16 01:30:04;;;;;;;28.00;15.40;;;;;;;18.12;78.91;98019.73;88571;1271;22804;-72
2022/08/16 01:32:06;;;;;;;28.70;15.40;;;;;;;18.12;79.14;98021.23;88724;1274;25407;-72
2022/08/16 01:34:09;;;;;;;26.90;16.10;;;;;;;18.13;78.93;98015.26;88233;1274;99757;-70
2022/08/16 01:36:11;;;;;;;24.70;17.20;;;;;;;18.15;78.96;98018.34;88398;1274;26013;-72
2022/08/16 01:38:28;;;;;;;22.30;16.60;;;;;;;18.16;79.10;98012.39;88353;1274;22563;-71
2022/08/16 01:40:29;;;;;;;24.90;16.40;;;;;;;18.16;79.18;98010.89;87998;1274;98426;-72
2022/08/16 01:42:32;;;;;;;24.30;15.40;;;;;;;18.16;79.16;98010.35;88445;1271;22529;-72
2022/08/16 01:44:36;;;;;;;28.00;15.30;;;;;;;18.15;79.23;98006.61;88438;1275;22751;-72
2022/08/16 01:46:45;;;;;;;23.70;14.60;;;;;;;18.10;79.13;98009.42;88270;1274;99507;-72
2022/08/16 01:48:52;;;;;;;15.60;13.40;;;;;;;18.07;79.18;98011.86;88338;1274;25485;-72
2022/08/16 01:50:56;;;;;;;17.80;13.30;;;;;;;18.03;79.10;98017.71;88088;1276;25410;-72
2022/08/16 01:52:58;;;;;;;22.40;14.00;;;;;;;17.98;79.15;98012.77;88298;1274;99531;-72
2022/08/16 01:55:00;;;;;;;22.70;14.50;;;;;;;17.95;79.21;98013.13;88362;1274;22546;-72
2022/08/16 01:57:02;;;;;;;21.40;14.30;;;;;;;17.89;79.19;98009.73;88451;1271;22722;-71
2022/08/16 01:59:06;;;;;;;18.10;14.30;;;;;;;17.83;79.12;98012.16;88325;1271;99806;-72
2022/08/16 02:01:08;;;;;;;20.90;13.30;;;;;;;17.79;79.29;98012.77;88547;1274;22682;-72
2022/08/16 02:03:11;;;;;;;22.20;14.30;;;;;;;17.76;79.35;98013.05;88420;1271;22642;-70
2022/08/16 02:05:13;;;;;;;24.70;14.80;;;;;;;17.74;79.34;98010.08;88266;1274;99928;-71
2022/08/16 02:07:17;;;;;;;25.30;14.00;;;;;;;17.74;79.34;98007.59;88229;1274;24294;-73
2022/08/16 02:09:22;;;;;;;23.60;15.80;;;;;;;17.72;79.42;98005.62;88338;1274;25403;-71
2022/08/16 02:11:25;;;;;;;22.00;15.60;;;;;;;17.71;79.39;98006.05;88537;1271;99476;-73
2022/08/16 02:13:27;;;;;;;24.60;14.80;;;;;;;17.72;79.47;98010.98;88350;1274;22709;-71
2022/08/16 02:15:32;;;;;;;20.30;14.90;;;;;;;17.71;79.45;98011.77;88283;1274;22632;-71
2022/08/16 02:17:34;;;;;;;26.40;15.10;;;;;;;17.70;79.49;98015.90;88056;1276;99421;-72
2022/08/16 02:19:40;;;;;;;22.50;14.90;;;;;;;17.70;79.43;98019.13;88332;1274;22745;-73
2022/08/16 02:21:47;;;;;;;26.10;16.30;;;;;;;17.68;79.47;98021.59;88230;1273;26361;-71
2022/08/16 02:23:49;;;;;;;25.00;14.50;;;;;;;17.67;79.39;98023.70;88072;1274;99795;-70
2022/08/16 02:25:51;;;;;;;27.40;14.10;;;;;;;17.64;79.38;98029.59;88301;1273;25456;-72
2022/08/16 02:27:53;;;;;;;25.70;13.80;;;;;;;17.62;79.41;98030.39;88447;1274;99642;-72
2022/08/16 02:29:55;;;;;;;23.30;14.10;;;;;;;17.60;79.39;98025.26;88294;1274;23031;-72
2022/08/16 02:31:58;;;;;;;28.60;14.50;;;;;;;17.58;79.42;98022.96;88295;1271;22629;-74
2022/08/16 02:34:00;;;;;;;22.00;14.60;;;;;;;17.55;79.51;98019.30;88265;1271;99457;-72
2022/08/16 02:36:03;;;;;;;21.20;14.60;;;;;;;17.54;79.54;98020.58;88284;1274;22709;-72
2022/08/16 02:38:05;;;;;;;24.50;13.70;;;;;;;17.52;79.51;98013.96;88284;1274;23428;-70
2022/08/16 02:40:09;;;;;;;16.40;13.60;;;;;;;17.51;79.51;98009.08;88167;1274;99528;-72
2022/08/16 02:42:10;;;;;;;22.30;14.70;;;;;;;17.50;79.52;98009.90;88221;1274;22724;-71
2022/08/16 02:44:13;;;;;;;28.00;15.60;;;;;;;17.48;79.52;98012.62;88270;1274;22665;-71
2022/08/16 02:46:15;;;;;;;21.50;14.50;;;;;;;17.44;79.56;98009.04;88311;1271;99364;-72
2022/08/16 02:48:16;;;;;;;21.00;13.80;;;;;;;17.40;79.72;98009.27;88175;1274;22511;-72
2022/08/16 02:50:19;;;;;;;19.70;14.10;;;;;;;17.36;79.67;98008.78;88126;1275;25375;-71
2022/08/16 02:52:21;;;;;;;22.10;15.20;;;;;;;17.32;79.72;98008.17;88327;1271;99514;-72
2022/08/16 02:54:22;;;;;;;22.80;15.20;;;;;;;17.31;79.90;98008.88;88312;1273;24858;-70
2022/08/16 02:56:24;;;;;;;25.30;15.20;;;;;;;17.31;79.86;98012.55;88268;1274;25765;-71
2022/08/16 02:58:27;;;;;;;21.60;14.90;;;;;;;17.31;79.87;98010.08;88066;1273;99537;-71
2022/08/16 03:00:29;;;;;;;31.00;14.10;;;;;;;17.30;79.89;98012.30;88229;1275;22554;-71
2022/08/16 03:02:31;;;;;;;22.60;14.40;;;;;;;17.29;79.84;98014.70;88277;1273;22819;-71
2022/08/16 03:04:33;;;;;;;25.70;14.30;;;;;;;17.29;79.88;98015.98;88338;1271;99911;-71
2022/08/16 03:06:35;;;;;;;21.70;14.10;;;;;;;17.28;79.94;98011.95;88376;1274;24166;-72
2022/08/16 03:08:36;;;;;;;27.20;15.10;;;;;;;17.28;80.04;98010.36;88305;1274;24005;-72
2022/08/16 03:10:39;;;;;;;25.90;14.40;;;;;;;17.28;80.01;98012.52;88146;1273;98381;-71
2022/08/16 03:12:43;;;;;;;26.50;14.90;;;;;;;17.29;79.92;98012.44;88340;1274;25480;-71
2022/08/16 03:14:45;;;;;;;22.10;14.40;;;;;;;17.28;79.99;98013.16;88403;1274;22731;-71
2022/08/16 03:16:47;;;;;;;26.50;13.80;;;;;;;17.27;79.99;98015.43;87135;1271;1643053;-72
2022/08/16 03:18:49;;;;;;;17.20;14.10;;;;;;;17.24;79.86;98016.41;88347;1271;24428;-72
2022/08/16 03:20:51;;;;;;;18.00;14.70;;;;;;;17.20;79.83;98014.48;88334;1271;22766;-73
2022/08/16 03:22:53;;;;;;;20.50;13.60;;;;;;;17.16;80.01;98012.45;88278;1274;100670;-73
2022/08/16 03:24:58;;;;;;;19.30;14.50;;;;;;;17.15;79.93;98009.20;88376;1270;22599;-71
2022/08/16 03:27:01;;;;;;;24.40;13.40;;;;;;;17.14;80.00;98015.48;88251;1274;24328;-72
2022/08/16 03:29:04;;;;;;;18.40;14.50;;;;;;;17.14;80.05;98015.73;88045;1274;99522;-73
2022/08/16 03:31:07;;;;;;;21.90;13.80;;;;;;;17.11;80.05;98014.90;88384;1271;22557;-71
2022/08/16 03:33:09;;;;;;;19.30;14.30;;;;;;;17.08;79.95;98018.36;88329;1274;22575;-72
2022/08/16 03:35:10;;;;;;;25.30;14.10;;;;;;;17.05;79.93;98022.00;88298;1274;99511;-72
2022/08/16 03:37:12;;;;;;;16.20;13.80;;;;;;;17.02;80.00;98018.75;88405;1274;22547;-73
2022/08/16 03:39:14;;;;;;;20.30;13.70;;;;;;;17.00;80.05;98023.02;88080;1274;22639;-70
2022/08/16 03:41:16;;;;;;;23.90;15.20;;;;;;;16.98;79.99;98027.49;88038;1277;99509;-73
2022/08/16 03:43:18;;;;;;;26.60;15.30;;;;;;;16.95;80.17;98030.72;88235;1274;24371;-71
2022/08/16 03:45:20;;;;;;;24.70;15.30;;;;;;;16.94;80.08;98033.34;88355;1274;24414;-72
2022/08/16 03:47:21;;;;;;;20.00;14.90;;;;;;;16.92;80.21;98030.31;88284;1274;98174;-71
2022/08/16 03:49:23;;;;;;;25.30;14.90;;;;;;;16.91;80.22;98029.30;88340;1274;23465;-72
2022/08/16 03:51:25;;;;;;;24.80;13.90;;;;;;;16.90;80.18;98029.55;88423;1271;24845;-72
2022/08/16 03:53:28;;;;;;;31.30;14.30;;;;;;;16.88;80.21;98030.81;88178;1274;99792;-71
2022/08/16 03:55:30;;;;;;;18.80;14.60;;;;;;;16.84;80.21;98034.14;88427;1271;22878;-72
2022/08/16 03:57:32;;;;;;;37.40;13.70;;;;;;;16.82;80.27;98036.98;88389;1271;24766;-72
2022/08/16 03:59:33;;;;;;;17.90;13.90;;;;;;;16.79;80.30;98035.48;88034;1274;101222;-72
2022/08/16 04:01:36;;;;;;;22.60;15.30;;;;;;;16.80;80.34;98037.31;88390;1271;23730;-72
2022/08/16 04:03:37;;;;;;;19.90;14.80;;;;;;;16.80;80.43;98041.21;88323;1274;22506;-72
2022/08/16 04:05:42;;;;;;;27.90;15.50;;;;;;;16.80;80.35;98043.60;88254;1274;99623;-70
2022/08/16 04:07:45;;;;;;;24.40;16.50;;;;;;;16.78;80.37;98045.52;88496;1271;22901;-72
2022/08/16 04:09:46;;;;;;;18.10;15.80;;;;;;;16.77;80.46;98050.53;88224;1274;22704;-71
2022/08/16 04:11:48;;;;;;;17.60;15.60;;;;;;;16.76;80.51;98046.35;88157;1274;99123;-71
2022/08/16 04:13:50;;;;;;;28.60;15.40;;;;;;;16.76;80.49;98045.83;88134;1274;25666;-72
2022/08/16 04:15:51;;;;;;;20.00;15.20;;;;;;;16.77;80.52;98047.06;88267;1274;22919;-72
2022/08/16 04:17:54;;;;;;;22.70;15.50;;;;;;;16.77;80.55;98046.81;88290;1274;22575;-70
2022/08/16 04:19:56;;;;;;;20.50;15.30;;;;;;;16.79;80.59;98051.77;88482;1271;23203;-72
2022/08/16 04:21:57;;;;;;;22.20;15.40;;;;;;;16.80;80.65;98047.46;88176;1274;99719;-72
2022/08/16 04:23:59;;;;;;;21.80;15.70;;;;;;;16.80;80.60;98048.84;88306;1274;22817;-72
2022/08/16 04:26:01;;;;;;;25.00;16.00;;;;;;;16.80;80.67;98050.10;88293;1274;22841;-72
2022/08/16 04:28:03;;;;;;;23.30;15.00;;;;;;;16.81;80.78;98051.48;88213;1274;100007;-72
2022/08/16 04:30:10;;;;;;;28.70;16.70;;;;;;;16.81;80.68;98054.41;88405;1271;22708;-73
2022/08/16 04:32:12;;;;;;;23.20;15.80;;;;;;;16.82;80.67;98055.93;88419;1274;24203;-71
2022/08/16 04:34:14;;;;;;;32.10;15.70;;;;;;;16.82;80.67;98059.85;88157;1274;99981;-71
2022/08/16 04:36:16;;;;;;;24.00;15.80;;;;;;;16.83;80.76;98055.16;88375;1274;22622;-72
2022/08/16 04:38:18;;;;;;;22.60;15.90;;;;;;;16.83;80.73;98055.50;88324;1274;23092;-68
2022/08/16 04:40:21;;;;;;;23.90;14.90;;;;;;;16.84;80.86;98054.59;88040;1274;99600;-72
2022/08/16 04:42:23;;;;;;;28.80;15.80;;;;;;;16.86;80.87;98057.23;88382;1274;22658;-71
2022/08/16 04:44:26;;;;;;;23.80;15.10;;;;;;;16.88;80.87;98052.48;88364;1274;22586;-72
2022/08/16 04:46:27;;;;;;;20.70;15.10;;;;;;;16.89;80.97;98050.10;88221;1274;99942;-71
2022/08/16 04:48:29;;;;;;;28.00;15.10;;;;;;;16.91;80.99;98052.62;88417;1271;22785;-72
2022/08/16 04:50:31;;;;;;;26.80;15.30;;;;;;;16.92;81.08;98055.86;88165;1274;22584;-74
2022/08/16 04:52:33;;;;;;;22.10;15.60;;;;;;;16.93;81.05;98056.30;88116;1274;99841;-72
2022/08/16 04:54:36;;;;;;;18.80;15.00;;;;;;;16.95;81.04;98055.16;88343;1274;22568;-71
2022/08/16 04:56:37;;;;;;;23.70;14.50;;;;;;;16.97;81.17;98052.56;88283;1274;25661;-71
2022/08/16 04:58:39;;;;;;;23.50;15.90;;;;;;;16.98;81.16;98051.70;88254;1274;99281;-72
2022/08/16 05:00:40;;;;;;;21.50;16.00;;;;;;;16.99;81.14;98051.29;88531;1270;22686;-72
2022/08/16 05:02:42;;;;;;;18.30;15.00;;;;;;;17.00;81.22;98050.84;88243;1274;22639;-71
2022/08/16 05:04:44;;;;;;;18.10;16.20;;;;;;;17.01;81.29;98053.94;88178;1274;100266;-74
2022/08/16 05:06:45;;;;;;;22.70;16.60;;;;;;;17.03;81.24;98057.71;88205;1274;22726;-71
2022/08/16 05:08:47;;;;;;;26.20;17.60;;;;;;;17.06;81.29;98061.73;88158;1276;22728;-72
2022/08/16 05:10:49;;;;;;;43.20;18.60;;;;;;;17.08;81.34;98062.23;88422;1271;99339;-70
2022/08/16 05:12:51;;;;;;;31.80;17.30;;;;;;;17.09;81.34;98065.65;88188;1274;22504;-71
2022/08/16 05:14:52;;;;;;;38.60;17.20;;;;;;;17.11;81.32;98067.12;88415;1271;23055;-73
2022/08/16 05:16:54;;;;;;;32.70;16.80;;;;;;;17.12;81.29;98071.27;88314;1274;99601;-72
2022/08/16 05:19:01;;;;;;;27.10;16.50;;;;;;;17.10;81.34;98070.22;88429;1274;22541;-71
2022/08/16 05:21:02;;;;;;;26.10;16.70;;;;;;;17.10;81.22;98068.09;88408;1273;22588;-69
2022/08/16 05:23:04;;;;;;;24.20;16.80;;;;;;;17.12;81.38;98067.54;88059;1274;100200;-71
2022/08/16 05:25:07;;;;;;;20.90;16.20;;;;;;;17.14;81.27;98068.57;88331;1271;22805;-73
2022/08/16 05:27:09;;;;;;;23.50;17.00;;;;;;;17.16;81.32;98069.97;88330;1274;24253;-70
2022/08/16 05:29:11;;;;;;;26.70;16.90;;;;;;;17.18;81.37;98070.84;88066;1274;99284;-71
2022/08/16 05:31:14;;;;;;;27.40;16.40;;;;;;;17.22;81.41;98071.81;88165;1274;22707;-71
2022/08/16 05:33:17;;;;;;;26.30;16.70;;;;;;;17.26;81.35;98073.80;88266;1274;22735;-71
2022/08/16 05:35:18;;;;;;;30.90;17.70;;;;;;;17.29;81.42;98074.23;87999;1274;99380;-71
2022/08/16 05:37:23;;;;;;;34.40;19.00;;;;;;;17.32;81.48;98073.75;88388;1271;25466;-72
2022/08/16 05:39:25;;;;;;;31.10;18.50;;;;;;;17.35;81.52;98074.31;88541;1271;25591;-71
2022/08/16 05:41:27;;;;;;;31.70;18.90;;;;;;;17.39;81.52;98074.56;88418;1271;99483;-72
2022/08/16 05:43:29;;;;;;;39.00;19.60;;;;;;;17.43;81.46;98073.67;88251;1274;26597;-72
2022/08/16 05:45:32;;;;;;;28.00;19.20;;;;;;;17.47;81.47;98070.08;88244;1274;25625;-72
2022/08/16 05:47:33;;;;;;;35.30;19.80;;;;;;;17.50;81.58;98071.91;88067;1274;99034;-73
2022/08/16 05:49:35;;;;;;;32.30;18.80;;;;;;;17.54;81.70;98070.37;88392;1273;24271;-72
2022/08/16 05:51:37;;;;;;;29.40;18.10;;;;;;;17.57;81.66;98071.30;88253;1274;22740;-71
2022/08/16 05:53:38;;;;;;;21.40;17.70;;;;;;;17.61;81.70;98075.08;88242;1274;99693;-72
2022/08/16 05:55:40;;;;;;;25.40;17.10;;;;;;;17.65;81.68;98075.93;88319;1271;25564;-74
2022/08/16 05:57:45;;;;;;;27.00;17.10;;;;;;;17.68;81.73;98077.41;88426;1271;22824;-72
2022/08/16 05:59:48;;;;;;;34.10;17.80;;;;;;;17.71;81.72;98078.17;88317;1271;99541;-71
2022/08/16 06:01:50;;;;;;;26.00;18.20;;;;;;;17.73;81.78;98075.52;88295;1274;22676;-70
2022/08/16 06:03:52;;;;;;;23.50;18.20;;;;;;;17.79;81.80;98081.70;88155;1274;23393;-72
2022/08/16 06:05:56;;;;;;;20.90;18.10;;;;;;;17.84;81.82;98080.01;88253;1274;22581;-74
2022/08/16 06:07:59;;;;;;;24.80;18.40;;;;;;;17.89;81.83;98079.38;88308;1274;22710;-72
2022/08/16 06:10:01;;;;;;;31.60;20.10;;;;;;;17.95;81.90;98077.25;88033;1276;99689;-73
2022/08/16 06:12:03;;;;;;;26.90;18.50;;;;;;;18.01;81.87;98079.77;88335;1274;25488;-71
2022/08/16 06:14:05;;;;;;;26.40;19.40;;;;;;;18.06;81.77;98081.41;88357;1271;22844;-72
2022/08/16 06:16:09;;;;;;;31.90;19.90;;;;;;;18.11;81.78;98080.92;88201;1274;98565;-73
2022/08/16 06:18:10;;;;;;;32.60;19.50;;;;;;;18.17;81.82;98082.62;88170;1274;22658;-72
2022/08/16 06:20:18;;;;;;;34.60;20.80;;;;;;;18.24;81.98;98085.96;88282;1274;24090;-72
2022/08/16 06:22:20;;;;;;;34.00;19.60;;;;;;;18.32;81.88;98090.74;88290;1274;99408;-72
2022/08/16 06:24:21;;;;;;;33.20;20.10;;;;;;;18.39;81.98;98093.63;88181;1274;24416;-73
2022/08/16 06:26:23;;;;;;;32.10;20.20;;;;;;;18.47;81.98;98096.23;88305;1274;24768;-72
2022/08/16 06:28:26;;;;;;;31.30;19.00;;;;;;;18.54;81.93;98095.22;88007;1277;98576;-72
2022/08/16 06:30:31;;;;;;;25.30;19.00;;;;;;;18.60;81.96;98092.52;88321;1273;22742;-72
2022/08/16 06:32:33;;;;;;;32.50;18.30;;;;;;;18.66;81.82;98087.48;88515;1271;22576;-72
2022/08/16 06:34:34;;;;;;;28.40;17.80;;;;;;;18.71;81.82;98089.27;88204;1274;100932;-70
2022/08/16 06:36:36;;;;;;;21.50;15.90;;;;;;;18.77;81.77;98089.61;88350;1274;22691;-72
2022/08/16 06:38:40;;;;;;;24.80;16.00;;;;;;;18.83;81.78;98095.66;88322;1274;22722;-72
2022/08/16 06:40:43;;;;;;;26.20;15.90;;;;;;;18.89;81.57;98096.02;88430;1271;99572;-71
2022/08/16 06:42:45;;;;;;;37.80;16.90;;;;;;;18.94;81.56;98093.92;88330;1273;24676;-71
2022/08/16 06:44:47;;;;;;;20.60;16.30;;;;;;;18.99;81.41;98093.27;88204;1274;23972;-71
2022/08/16 06:46:50;;;;;;;21.00;16.40;;;;;;;19.04;81.37;98096.13;88495;1271;99803;-71
2022/08/16 06:48:52;;;;;;;36.40;16.20;;;;;;;19.11;81.35;98101.18;88434;1274;22768;-71
2022/08/16 06:50:57;;;;;;;24.20;16.90;;;;;;;19.18;81.51;98101.73;88474;1271;22582;-74
2022/08/16 06:53:00;;;;;;;31.80;17.90;;;;;;;19.25;81.43;98106.73;88246;1274;99553;-72
2022/08/16 06:55:05;;;;;;;33.20;16.90;;;;;;;19.32;81.39;98111.36;88139;1274;24301;-71
2022/08/16 06:57:09;;;;;;;25.30;17.70;;;;;;;19.38;81.33;98105.79;88338;1271;22731;-71
2022/08/16 06:59:11;;;;;;;31.50;17.50;;;;;;;19.46;81.35;98108.27;88173;1276;100131;-71
2022/08/16 07:01:12;;;;;;;28.20;18.10;;;;;;;19.53;81.36;98108.63;88224;1274;22722;-72
2022/08/16 07:03:14;;;;;;;29.50;19.90;;;;;;;19.60;81.32;98108.98;88033;1274;22613;-71
2022/08/16 07:05:17;;;;;;;28.80;19.90;;;;;;;19.67;81.31;98110.44;88082;1275;99523;-72
2022/08/16 07:07:20;;;;;;;27.90;17.80;;;;;;;19.76;81.34;98109.77;88263;1274;22591;-72
2022/08/16 07:09:21;;;;;;;27.50;18.50;;;;;;;19.86;81.26;98107.83;88321;1274;27546;-71
2022/08/16 07:11:25;;;;;;;29.40;20.20;;;;;;;19.94;81.18;98113.30;88026;1274;99804;-72
2022/08/16 07:13:28;;;;;;;25.60;19.70;;;;;;;20.03;81.14;98119.75;88201;1274;22694;-72
2022/08/16 07:15:30;;;;;;;21.80;18.80;;;;;;;20.12;81.03;98127.08;88278;1274;22565;-72
2022/08/16 07:17:32;;;;;;;47.30;19.40;;;;;;;20.21;81.03;98132.70;88086;1274;101114;-71
2022/08/16 07:19:34;;;;;;;26.20;18.50;;;;;;;20.33;81.07;98136.02;88173;1273;22774;-70
2022/08/16 07:21:36;;;;;;;21.20;18.90;;;;;;;20.46;81.04;98136.64;88237;1274;24393;-71
2022/08/16 07:23:44;;;;;;;57.30;20.90;;;;;;;20.54;80.84;98137.17;88020;1274;99415;-72
2022/08/16 07:25:46;;;;;;;32.70;19.20;;;;;;;20.60;80.61;98135.89;88090;1274;22585;-72
2022/08/16 07:27:48;;;;;;;35.60;20.60;;;;;;;20.66;80.63;98136.73;88176;1274;25311;-72
2022/08/16 07:29:50;;;;;;;47.30;19.50;;;;;;;20.76;80.71;98138.71;88203;1273;99589;-70
2022/08/16 07:31:51;;;;;;;43.10;20.00;;;;;;;20.86;80.64;98138.73;88218;1274;22550;-71
2022/08/16 07:33:53;;;;;;;42.00;20.10;;;;;;;20.94;80.58;98138.83;87897;1274;22734;-71
2022/08/16 07:35:55;;;;;;;35.30;19.20;;;;;;;21.03;80.52;98134.55;88198;1274;99286;-69
2022/08/16 07:37:56;;;;;;;44.00;19.50;;;;;;;21.13;80.51;98132.50;88321;1274;25328;-72
2022/08/16 07:39:58;;;;;;;34.30;19.00;;;;;;;21.20;80.43;98129.63;88306;1274;24097;-73
2022/08/16 07:42:01;;;;;;;30.60;18.50;;;;;;;21.24;80.23;98131.17;88088;1274;99531;-72
2022/08/16 07:44:03;;;;;;;43.40;19.40;;;;;;;21.30;80.26;98133.06;88102;1274;24228;-71
2022/08/16 07:46:06;;;;;;;36.20;18.60;;;;;;;21.37;80.24;98131.98;88373;1274;100024;-72
2022/08/16 07:48:08;;;;;;;41.60;18.40;;;;;;;21.43;80.12;98128.71;88141;1274;24383;-71
2022/08/16 07:50:13;;;;;;;54.60;20.40;;;;;;;21.47;79.98;98127.84;88369;1274;22861;-73
2022/08/16 07:52:16;;;;;;;39.90;18.60;;;;;;;21.51;79.77;98122.30;88154;1273;101162;-72
2022/08/16 07:54:18;;;;;;;38.80;19.30;;;;;;;21.53;79.73;98121.55;88242;1273;25767;-71
2022/08/16 07:56:20;;;;;;;48.30;19.00;;;;;;;21.56;79.73;98127.45;88409;1271;22570;-72
2022/08/16 07:58:21;;;;;;;43.30;19.90;;;;;;;21.58;79.53;98132.58;88136;1274;99751;-71
2022/08/16 08:00:23;;;;;;;31.70;17.40;;;;;;;21.63;79.74;98134.86;88163;1274;23393;-72
2022/08/16 08:02:25;;;;;;;36.50;17.80;;;;;;;21.69;79.62;98132.56;87998;1275;25490;-72
2022/08/16 08:04:31;;;;;;;33.30;17.80;;;;;;;21.76;79.52;98138.02;88116;1274;99337;-70
2022/08/16 08:06:33;;;;;;;37.10;17.90;;;;;;;21.88;79.81;98137.27;88398;1274;22892;-72
2022/08/16 08:08:35;;;;;;;35.30;16.60;;;;;;;22.01;79.57;98135.20;88326;1271;22549;-72
2022/08/16 08:10:38;;;;;;;41.90;17.30;;;;;;;22.09;79.37;98133.21;88329;1274;100806;-71
2022/08/16 08:12:42;;;;;;;42.70;17.20;;;;;;;22.18;79.26;98132.00;88173;1274;25957;-75
2022/08/16 08:14:45;;;;;;;39.20;16.90;;;;;;;22.32;79.24;98130.96;88239;1274;26665;-70
2022/08/16 08:16:48;;;;;;;48.50;15.80;;;;;;;22.45;79.09;98128.45;88054;1274;99445;-73
2022/08/16 08:18:50;;;;;;;32.70;16.40;;;;;;;22.56;78.91;98132.18;88213;1274;22567;-72
2022/08/16 08:20:53;;;;;;;41.30;16.50;;;;;;;22.68;78.67;98136.30;88294;1271;25324;-72
2022/08/16 08:23:00;;;;;;;34.30;15.50;;;;;;;22.78;78.62;98138.53;88225;1271;99365;-69
2022/08/16 08:25:03;;;;;;;32.60;14.60;;;;;;;22.86;78.50;98140.35;88205;1275;22684;-72
2022/08/16 08:27:07;;;;;;;29.10;14.70;;;;;;;22.96;78.56;98133.45;88267;1271;23967;-71
2022/08/16 08:29:08;;;;;;;49.60;15.30;;;;;;;23.08;78.56;98128.58;88267;1274;99528;-72
2022/08/16 08:31:10;;;;;;;48.90;15.20;;;;;;;23.17;78.16;98127.52;88603;1273;22872;-72
2022/08/16 08:33:27;;;;;;;62.30;15.50;;;;;;;23.27;78.18;98127.34;88688;1271;22605;-73
2022/08/16 08:35:31;;;;;;;40.80;14.10;;;;;;;23.37;78.03;98129.73;88552;1271;99316;-73
2022/08/16 08:37:35;;;;;;;44.70;14.10;;;;;;;23.48;78.03;98130.56;88170;1278;22804;-73
2022/08/16 08:39:39;;;;;;;40.40;13.50;;;;;;;23.58;77.76;98131.59;88501;1274;22612;-73
2022/08/16 08:41:43;;;;;;;32.20;13.70;;;;;;;23.69;77.50;98130.61;88175;1274;99484;-72
2022/08/16 08:43:46;;;;;;;28.90;13.40;;;;;;;23.82;77.37;98129.03;88367;1271;22643;-71
2022/08/16 08:45:48;;;;;;;35.70;13.10;;;;;;;23.95;77.15;98129.50;88259;1273;22669;-72
2022/08/16 08:47:51;;;;;;;24.90;13.00;;;;;;;24.10;77.01;98129.38;88215;1274;99499;-71
2022/08/16 08:49:55;;;;;;;23.70;12.10;;;;;;;24.24;77.23;98128.81;88227;1274;22557;-72
2022/08/16 08:51:57;;;;;;;24.30;11.70;;;;;;;24.42;77.10;98131.16;88232;1274;22582;-72
2022/08/16 08:53:59;;;;;;;34.30;12.40;;;;;;;24.58;76.75;98129.64;88290;1271;99175;-73
2022/08/16 08:56:05;;;;;;;24.10;12.30;;;;;;;24.72;76.51;98132.49;88451;1274;22592;-71
2022/08/16 08:58:08;;;;;;;13.50;11.30;;;;;;;24.84;76.35;98133.52;88375;1274;100649;-72
2022/08/16 09:00:12;;;;;;;31.10;12.90;;;;;;;25.02;76.56;98135.83;88367;1273;22685;-72
2022/08/16 09:02:15;;;;;;;22.30;11.60;;;;;;;25.26;76.68;98136.31;88366;1274;23084;-72
2022/08/16 09:04:17;;;;;;;28.20;11.70;;;;;;;25.44;76.24;98131.45;88144;1273;99168;-71
2022/08/16 09:06:19;;;;;;;26.30;11.60;;;;;;;25.57;75.94;98135.38;88301;1271;22767;-73
2022/08/16 09:08:21;;;;;;;21.70;11.70;;;;;;;25.67;76.00;98134.15;88423;1274;26755;-73
2022/08/16 09:10:22;;;;;;;38.80;11.90;;;;;;;25.77;75.39;98142.27;88320;1271;99392;-70
2022/08/16 09:12:25;;;;;;;15.80;11.50;;;;;;;25.85;75.32;98145.63;88381;1271;26527;-72
2022/08/16 09:14:28;;;;;;;25.70;11.40;;;;;;;25.87;75.29;98145.80;88258;1274;22648;-72
2022/08/16 09:16:31;;;;;;;32.70;11.70;;;;;;;25.94;75.02;98146.30;88233;1272;99473;-71
2022/08/16 09:18:33;;;;;;;42.90;11.80;;;;;;;26.00;74.87;98142.87;88295;1272;22722;-73
2022/08/16 09:20:35;;;;;;;28.90;12.00;;;;;;;26.10;74.99;98138.02;88377;1271;22574;-72
2022/08/16 09:22:36;;;;;;;32.40;12.60;;;;;;;26.21;74.36;98138.09;88104;1274;99863;-72
2022/08/16 09:24:38;;;;;;;41.40;11.60;;;;;;;26.27;74.20;98138.95;88294;1271;23391;-72